Coldwater, Mississippi
Current Conditions -  °F | °C
As of 12:15 PM on Thursday 18 Dec 2014 (Local Time) from KUTA Reporting Station
Broken Clouds Broken Clouds  
Wind Chill: 40°   Ceiling: 2200
Heat Index: 43°   Visibility: 10mi
Dew Point: 37°   Wind: 5mph
Humidity: 81%   Direction: 70°ENE
Pressure: 30.22"   Gusts: NA
Location:  34.69°N, 89.98°W
Report Text: KUTA 181815Z AUTO 07004KT 10SM BKN022 06/03 A3022 RMK AO2
Loading
Personal Weather Stations






























Interactive Weather Map New forecast layout! Learn more

10-Day Weather Forecast

Advertisements
Track Severe Weather on mobile